createdAt,value
2018-05-18T00:00:40.865Z,6.88
2018-05-18T00:01:40.879Z,6.85
2018-05-18T00:02:40.888Z,6.84
2018-05-18T00:03:40.898Z,6.84
2018-05-18T00:04:40.911Z,6.81
2018-05-18T00:05:40.923Z,6.88
2018-05-18T00:06:40.932Z,6.80
2018-05-18T00:07:40.944Z,6.91
2018-05-18T00:08:40.956Z,6.89
2018-05-18T00:09:40.967Z,6.87
2018-05-18T00:10:40.977Z,6.76
2018-05-18T00:11:40.991Z,6.77
2018-05-18T00:12:41.001Z,6.73
2018-05-18T00:13:41.012Z,6.73
2018-05-18T00:14:41.023Z,6.64
2018-05-18T00:15:41.037Z,6.67
2018-05-18T00:16:41.045Z,6.66
2018-05-18T00:17:41.056Z,6.62
2018-05-18T00:18:41.068Z,6.64
2018-05-18T00:19:41.080Z,6.59
2018-05-18T00:20:41.091Z,6.58
2018-05-18T00:21:41.173Z,6.56
2018-05-18T00:22:41.113Z,6.55
2018-05-18T00:23:41.124Z,6.46
2018-05-18T00:24:41.135Z,6.55
2018-05-18T00:25:41.146Z,6.59
2018-05-18T00:26:41.157Z,6.55
2018-05-18T00:27:41.167Z,6.48
2018-05-18T00:28:41.179Z,6.49
2018-05-18T00:29:41.190Z,6.51
2018-05-18T00:30:41.202Z,6.48
2018-05-18T00:31:41.211Z,6.56
2018-05-18T00:32:41.223Z,6.59
2018-05-18T00:33:41.235Z,6.54
2018-05-18T00:34:41.243Z,6.54
2018-05-18T00:35:41.256Z,6.55
2018-05-18T00:36:41.269Z,6.56
2018-05-18T00:37:41.277Z,6.43
2018-05-18T00:38:41.289Z,6.54
2018-05-18T00:39:41.299Z,6.44
2018-05-18T00:40:41.308Z,6.43
2018-05-18T00:41:41.321Z,6.48
2018-05-18T00:42:41.330Z,6.37
2018-05-18T00:43:41.343Z,6.38
2018-05-18T00:44:41.354Z,6.36
2018-05-18T00:45:41.365Z,6.36
2018-05-18T00:46:41.376Z,6.38
2018-05-18T00:47:41.386Z,6.38
2018-05-18T00:48:41.397Z,6.37
2018-05-18T00:49:41.411Z,6.44
2018-05-18T00:50:41.419Z,6.37
2018-05-18T00:51:41.429Z,6.44
2018-05-18T00:52:41.441Z,6.40
2018-05-18T00:53:41.459Z,6.43
2018-05-18T00:54:41.464Z,6.43
2018-05-18T00:55:41.479Z,6.43
2018-05-18T00:56:41.485Z,6.41
2018-05-18T00:57:41.494Z,6.43
2018-05-18T00:58:41.507Z,6.48
2018-05-18T00:59:41.518Z,6.38
2018-05-18T01:00:41.527Z,6.34
2018-05-18T01:01:41.541Z,6.30
2018-05-18T01:02:41.558Z,6.19
2018-05-18T01:03:41.564Z,6.22
2018-05-18T01:04:41.570Z,6.18
2018-05-18T01:05:41.581Z,6.09
2018-05-18T01:06:41.590Z,6.08
2018-05-18T01:07:41.602Z,6.11
2018-05-18T01:08:41.613Z,6.00
2018-05-18T01:09:41.622Z,6.04
2018-05-18T01:10:41.634Z,6.00
2018-05-18T01:11:41.644Z,6.04
2018-05-18T01:12:41.656Z,5.99
2018-05-18T01:13:41.666Z,5.93
2018-05-18T01:14:41.675Z,5.97
2018-05-18T01:15:41.685Z,5.97
2018-05-18T01:16:41.698Z,5.94
2018-05-18T01:17:41.708Z,5.99
2018-05-18T01:18:41.717Z,5.93
2018-05-18T01:19:41.803Z,6.01
2018-05-18T01:20:41.741Z,6.06
2018-05-18T01:21:41.748Z,5.93
2018-05-18T01:22:41.760Z,6.04
2018-05-18T01:23:41.768Z,6.00
2018-05-18T01:24:41.785Z,5.91
2018-05-18T01:25:41.791Z,6.00
2018-05-18T01:26:41.802Z,6.00
2018-05-18T01:27:41.814Z,6.00
2018-05-18T01:28:41.824Z,6.06
2018-05-18T01:29:41.833Z,5.97
2018-05-18T01:30:41.844Z,6.00
2018-05-18T01:31:41.854Z,6.00
2018-05-18T01:32:41.863Z,6.06
2018-05-18T01:33:41.877Z,6.06
2018-05-18T01:34:41.883Z,6.06
2018-05-18T01:35:41.894Z,6.00
2018-05-18T01:36:41.905Z,6.00
2018-05-18T01:37:41.916Z,5.94
2018-05-18T01:38:41.926Z,5.93
2018-05-18T01:39:41.935Z,6.03
2018-05-18T01:40:41.949Z,6.00
2018-05-18T01:41:41.957Z,5.94
2018-05-18T01:42:41.967Z,6.03
2018-05-18T01:43:41.978Z,6.01
2018-05-18T01:44:41.988Z,5.99
2018-05-18T01:45:42.000Z,6.00
2018-05-18T01:46:42.014Z,5.96
2018-05-18T01:47:42.019Z,6.00
2018-05-18T01:48:42.030Z,5.97
2018-05-18T01:49:42.039Z,5.96
2018-05-18T01:50:42.049Z,5.99
2018-05-18T01:51:42.060Z,6.01
2018-05-18T01:52:42.069Z,5.96
2018-05-18T01:53:42.080Z,6.01
2018-05-18T01:54:42.090Z,5.94
2018-05-18T01:55:42.100Z,6.00
2018-05-18T01:56:42.114Z,5.90
2018-05-18T01:57:42.126Z,5.97
2018-05-18T01:58:42.134Z,6.01
2018-05-18T01:59:42.147Z,5.86
2018-05-18T02:00:42.153Z,5.99
2018-05-18T02:01:42.182Z,6.00
2018-05-18T02:02:42.174Z,6.09
2018-05-18T02:03:42.185Z,6.06
2018-05-18T02:04:42.195Z,6.06
2018-05-18T02:05:42.204Z,6.09
2018-05-18T02:06:42.215Z,6.03
2018-05-18T02:07:42.226Z,6.04
2018-05-18T02:08:42.237Z,6.06
2018-05-18T02:09:42.248Z,6.08
2018-05-18T02:10:42.256Z,5.97
2018-05-18T02:11:42.267Z,5.97
2018-05-18T02:12:42.280Z,5.97
2018-05-18T02:13:42.287Z,6.04
2018-05-18T02:14:42.298Z,5.93
2018-05-18T02:15:42.307Z,5.96
2018-05-18T02:16:42.319Z,5.97
2018-05-18T02:17:42.333Z,6.00
2018-05-18T02:18:42.342Z,5.94
2018-05-18T02:19:42.352Z,5.96
2018-05-18T02:20:42.362Z,5.97
2018-05-18T02:21:42.369Z,6.00
2018-05-18T02:22:42.380Z,5.97
2018-05-18T02:23:42.391Z,5.99
2018-05-18T02:24:42.402Z,5.97
2018-05-18T02:25:42.413Z,5.94
2018-05-18T02:26:42.421Z,5.86
2018-05-18T02:27:42.433Z,5.99
2018-05-18T02:28:42.447Z,5.99
2018-05-18T02:29:42.456Z,5.99
2018-05-18T02:30:42.465Z,5.89
2018-05-18T02:31:42.475Z,5.96
2018-05-18T02:32:42.485Z,5.85
2018-05-18T02:33:42.499Z,5.72
2018-05-18T02:34:42.504Z,5.71
2018-05-18T02:35:42.516Z,5.72
2018-05-18T02:36:42.527Z,5.68
2018-05-18T02:37:42.536Z,5.68
2018-05-18T02:38:42.550Z,5.71
2018-05-18T02:39:42.556Z,5.68
2018-05-18T02:40:42.572Z,5.72
2018-05-18T02:41:42.577Z,5.71
2018-05-18T02:42:42.590Z,5.67
2018-05-18T02:43:42.600Z,5.68
2018-05-18T02:44:42.612Z,5.68
2018-05-18T02:45:42.620Z,5.63
2018-05-18T02:46:42.627Z,5.68
2018-05-18T02:47:42.639Z,5.65
2018-05-18T02:48:42.648Z,5.64
2018-05-18T02:49:42.659Z,5.61
2018-05-18T02:50:42.669Z,5.72
2018-05-18T02:51:42.679Z,5.65
2018-05-18T02:52:42.689Z,5.68
2018-05-18T02:53:42.702Z,5.71
2018-05-18T02:54:42.718Z,5.63
2018-05-18T02:55:42.750Z,5.79
2018-05-18T02:56:42.734Z,5.76
2018-05-18T02:57:42.739Z,5.76
2018-05-18T02:58:42.749Z,5.78
2018-05-18T02:59:42.758Z,5.75
2018-05-18T03:00:42.771Z,5.78
2018-05-18T03:01:42.781Z,5.78
2018-05-18T03:02:42.790Z,5.78
2018-05-18T03:03:42.805Z,5.79
2018-05-18T03:04:42.809Z,5.81
2018-05-18T03:05:42.822Z,5.79
2018-05-18T03:06:42.830Z,5.76
2018-05-18T03:07:42.840Z,5.81
2018-05-18T03:08:42.851Z,5.76
2018-05-18T03:09:42.862Z,5.79
2018-05-18T03:10:42.871Z,5.81
2018-05-18T03:11:42.938Z,5.78
2018-05-18T03:12:42.892Z,5.78
2018-05-18T03:13:42.902Z,5.76
2018-05-18T03:14:42.911Z,5.71
2018-05-18T03:15:42.926Z,5.72
2018-05-18T03:16:42.933Z,5.67
2018-05-18T03:17:42.942Z,5.75
2018-05-18T03:18:42.953Z,5.65
2018-05-18T03:19:42.964Z,5.71
2018-05-18T03:20:42.976Z,5.63
2018-05-18T03:21:42.982Z,5.67
2018-05-18T03:22:42.992Z,5.68
2018-05-18T03:23:43.002Z,5.67
2018-05-18T03:24:43.014Z,5.71
2018-05-18T03:25:43.023Z,5.63
2018-05-18T03:26:43.032Z,5.71
2018-05-18T03:27:43.044Z,5.60
2018-05-18T03:28:43.053Z,5.68
2018-05-18T03:29:43.065Z,5.64
2018-05-18T03:30:43.074Z,5.63
2018-05-18T03:31:43.085Z,5.65
2018-05-18T03:32:43.093Z,5.61
2018-05-18T03:33:43.104Z,5.67
2018-05-18T03:34:43.114Z,5.63
2018-05-18T03:35:43.124Z,5.63
2018-05-18T03:36:43.137Z,5.60
2018-05-18T03:37:43.145Z,5.61
2018-05-18T03:38:43.155Z,5.61
2018-05-18T03:39:43.165Z,5.68
2018-05-18T03:40:43.179Z,5.67
2018-05-18T03:41:43.186Z,5.65
2018-05-18T03:42:43.197Z,5.67
2018-05-18T03:43:43.205Z,5.67
2018-05-18T03:44:43.217Z,5.75
2018-05-18T03:45:43.227Z,5.67
2018-05-18T03:46:43.235Z,5.65
2018-05-18T03:47:43.245Z,5.72
2018-05-18T03:48:43.255Z,5.67
2018-05-18T03:49:43.267Z,5.67
2018-05-18T03:50:43.278Z,5.71
2018-05-18T03:51:43.285Z,5.68
2018-05-18T03:52:43.300Z,5.68
2018-05-18T03:53:43.306Z,5.68
2018-05-18T03:54:43.317Z,5.68
2018-05-18T03:55:43.331Z,5.67
2018-05-18T03:56:43.343Z,5.68
2018-05-18T03:57:43.348Z,5.54
2018-05-18T03:58:43.356Z,5.74
2018-05-18T03:59:43.367Z,5.61
2018-05-18T04:00:43.377Z,5.58
2018-05-18T04:01:43.387Z,5.67
2018-05-18T04:02:43.397Z,5.58
2018-05-18T04:03:43.409Z,5.64
2018-05-18T04:04:43.417Z,5.71
2018-05-18T04:05:43.428Z,5.67
2018-05-18T04:06:43.438Z,5.71
2018-05-18T04:07:43.453Z,5.72
2018-05-18T04:08:43.458Z,5.65
2018-05-18T04:09:43.471Z,5.75
2018-05-18T04:10:43.482Z,5.71
2018-05-18T04:11:43.488Z,5.71
2018-05-18T04:12:43.498Z,5.68
2018-05-18T04:13:43.510Z,5.72
2018-05-18T04:14:43.523Z,5.74
2018-05-18T04:15:43.530Z,5.65
2018-05-18T04:16:43.542Z,5.74
2018-05-18T04:17:43.554Z,5.76
2018-05-18T04:18:43.560Z,5.78
2018-05-18T04:19:43.569Z,5.76
2018-05-18T04:20:43.579Z,5.81
2018-05-18T04:21:43.591Z,5.76
2018-05-18T04:22:43.600Z,5.76
2018-05-18T04:23:43.610Z,5.78
2018-05-18T04:24:43.619Z,5.79
2018-05-18T04:25:43.631Z,5.75
2018-05-18T04:26:43.640Z,5.81
2018-05-18T04:27:43.652Z,5.83
2018-05-18T04:28:43.668Z,5.79
2018-05-18T04:29:43.674Z,5.79
2018-05-18T04:30:43.682Z,5.83
2018-05-18T04:31:43.692Z,5.82
2018-05-18T04:32:43.702Z,5.71
2018-05-18T04:33:43.712Z,5.65
2018-05-18T04:34:43.722Z,5.71
2018-05-18T04:35:43.732Z,5.74
2018-05-18T04:36:43.741Z,5.64
2018-05-18T04:37:43.753Z,5.76
2018-05-18T04:38:43.760Z,5.72
2018-05-18T04:39:43.771Z,5.75
2018-05-18T04:40:43.780Z,5.71
2018-05-18T04:41:43.797Z,5.78
2018-05-18T04:42:43.801Z,5.79
2018-05-18T04:43:43.812Z,5.78
2018-05-18T04:44:43.825Z,5.89
2018-05-18T04:45:43.832Z,5.79
2018-05-18T04:46:43.842Z,5.83
2018-05-18T04:47:43.850Z,5.81
2018-05-18T04:48:43.862Z,5.81
2018-05-18T04:49:43.872Z,5.85
2018-05-18T04:50:43.927Z,5.83
2018-05-18T04:51:43.893Z,5.89
2018-05-18T04:52:43.902Z,5.85
2018-05-18T04:53:43.912Z,5.90
2018-05-18T04:54:43.921Z,5.90
2018-05-18T04:55:43.932Z,5.86
2018-05-18T04:56:43.943Z,5.91
2018-05-18T04:57:43.953Z,5.90
2018-05-18T04:58:43.989Z,5.96
2018-05-18T04:59:43.971Z,5.90
2018-05-18T05:00:43.984Z,5.85
2018-05-18T05:01:43.994Z,5.86
2018-05-18T05:02:44.002Z,5.89
2018-05-18T05:03:44.014Z,5.86
2018-05-18T05:04:44.023Z,5.82
2018-05-18T05:05:44.032Z,5.82
2018-05-18T05:06:44.043Z,5.76
2018-05-18T05:07:44.054Z,5.76
2018-05-18T05:08:44.067Z,5.89
2018-05-18T05:09:44.075Z,5.85
2018-05-18T05:10:44.084Z,5.79
2018-05-18T05:11:44.094Z,5.82
2018-05-18T05:12:44.105Z,5.82
2018-05-18T05:13:44.116Z,5.85
2018-05-18T05:14:44.126Z,5.83
2018-05-18T05:15:44.134Z,5.97
2018-05-18T05:16:44.144Z,5.94
2018-05-18T05:17:44.156Z,5.91
2018-05-18T05:18:44.216Z,5.93
2018-05-18T05:19:44.176Z,5.90
2018-05-18T05:20:44.185Z,5.90
2018-05-18T05:21:44.197Z,5.93
2018-05-18T05:22:44.205Z,6.00
2018-05-18T05:23:44.260Z,5.86
2018-05-18T05:24:44.228Z,5.90
2018-05-18T05:25:44.242Z,6.03
2018-05-18T05:26:44.248Z,5.97
2018-05-18T05:27:44.259Z,6.06
2018-05-18T05:28:44.266Z,6.00
2018-05-18T05:29:44.278Z,6.01
2018-05-18T05:30:44.288Z,6.03
2018-05-18T05:31:44.298Z,6.04
2018-05-18T05:32:44.309Z,6.01
2018-05-18T05:33:44.318Z,6.03
2018-05-18T05:34:44.330Z,6.04
2018-05-18T05:35:44.341Z,6.04
2018-05-18T05:36:44.449Z,6.11
2018-05-18T05:37:44.359Z,6.09
2018-05-18T05:38:44.373Z,6.09
2018-05-18T05:39:44.381Z,6.06
2018-05-18T05:40:44.391Z,6.04
2018-05-18T05:41:44.402Z,6.11
2018-05-18T05:42:44.422Z,6.18
2018-05-18T05:43:44.425Z,6.15
2018-05-18T05:44:44.433Z,6.21
2018-05-18T05:45:44.443Z,6.30
2018-05-18T05:46:44.452Z,6.28
2018-05-18T05:47:44.463Z,6.28
2018-05-18T05:48:44.473Z,6.38
2018-05-18T05:49:44.487Z,6.36
2018-05-18T05:50:44.494Z,6.33
2018-05-18T05:51:44.504Z,6.36
2018-05-18T05:52:44.557Z,6.41
2018-05-18T05:53:44.525Z,6.55
2018-05-18T05:54:44.537Z,6.59
2018-05-18T05:55:44.546Z,6.66
2018-05-18T05:56:44.557Z,6.70
2018-05-18T05:57:44.567Z,6.66
2018-05-18T05:58:44.580Z,6.66
2018-05-18T05:59:44.591Z,6.76
2018-05-18T06:00:44.600Z,6.69
2018-05-18T06:01:44.609Z,6.76
2018-05-18T06:02:44.619Z,6.81
2018-05-18T06:03:44.630Z,6.81
2018-05-18T06:04:44.645Z,6.87
2018-05-18T06:05:44.656Z,6.91
2018-05-18T06:06:44.661Z,6.95
2018-05-18T06:07:44.672Z,6.95
2018-05-18T06:08:44.684Z,6.98
2018-05-18T06:09:44.693Z,7.02
2018-05-18T06:10:44.703Z,7.03
2018-05-18T06:11:44.715Z,7.12
2018-05-18T06:12:44.725Z,7.09
2018-05-18T06:13:44.737Z,7.16
2018-05-18T06:14:44.749Z,7.16
2018-05-18T06:15:44.758Z,7.25
2018-05-18T06:16:44.770Z,7.23
2018-05-18T06:17:44.778Z,7.24
2018-05-18T06:18:44.790Z,7.30
2018-05-18T06:19:44.806Z,7.07
2018-05-18T06:20:44.812Z,7.13
2018-05-18T06:21:44.822Z,7.21
2018-05-18T06:22:44.834Z,7.23
2018-05-18T06:23:44.841Z,7.30
2018-05-18T06:24:44.853Z,7.25
2018-05-18T06:25:44.865Z,7.30
2018-05-18T06:26:44.875Z,7.31
2018-05-18T06:27:44.885Z,7.34
2018-05-18T06:28:44.904Z,7.43
2018-05-18T06:29:44.907Z,7.37
2018-05-18T06:30:44.919Z,7.30
2018-05-18T06:31:44.930Z,7.28
2018-05-18T06:32:44.941Z,7.34
2018-05-18T06:33:44.949Z,7.31
2018-05-18T06:34:45.033Z,7.31
2018-05-18T06:35:44.971Z,7.42
2018-05-18T06:36:44.984Z,7.45
2018-05-18T06:37:44.993Z,7.45
2018-05-18T06:38:45.002Z,7.45
2018-05-18T06:39:45.014Z,7.48
2018-05-18T06:40:45.025Z,7.58
2018-05-18T06:41:45.037Z,7.52
2018-05-18T06:42:45.045Z,7.63
2018-05-18T06:43:45.060Z,7.57
2018-05-18T06:44:45.067Z,7.55
2018-05-18T06:45:45.079Z,7.58
2018-05-18T06:46:45.182Z,7.60
2018-05-18T06:47:45.098Z,7.60
2018-05-18T06:48:45.113Z,7.61
2018-05-18T06:49:45.122Z,7.64
2018-05-18T06:50:45.132Z,7.63
2018-05-18T06:51:45.141Z,7.67
2018-05-18T06:52:45.151Z,7.77
2018-05-18T06:53:45.168Z,7.77
2018-05-18T06:54:45.173Z,7.83
2018-05-18T06:55:45.184Z,7.79
2018-05-18T06:56:45.194Z,7.80
2018-05-18T06:57:45.212Z,7.77
2018-05-18T06:58:45.234Z,7.82
2018-05-18T06:59:45.227Z,7.68
2018-05-18T07:00:45.239Z,7.80
2018-05-18T07:01:45.249Z,7.92
2018-05-18T07:02:45.260Z,7.98
2018-05-18T07:03:45.271Z,8.02
2018-05-18T07:04:45.283Z,8.04
2018-05-18T07:05:45.293Z,8.10
2018-05-18T07:06:45.303Z,8.05
2018-05-18T07:07:45.315Z,8.18
2018-05-18T07:08:45.324Z,8.19
2018-05-18T07:09:45.337Z,8.36
2018-05-18T07:10:45.347Z,8.28
2018-05-18T07:11:45.364Z,8.08
2018-05-18T07:12:45.369Z,8.16
2018-05-18T07:13:45.382Z,8.11
2018-05-18T07:14:45.390Z,8.29
2018-05-18T07:15:45.402Z,8.30
2018-05-18T07:16:45.413Z,8.33
2018-05-18T07:17:45.425Z,8.30
2018-05-18T07:18:45.435Z,8.30
2018-05-18T07:19:45.447Z,8.45
2018-05-18T07:20:45.461Z,8.48
2018-05-18T07:21:45.467Z,8.63
2018-05-18T07:22:45.480Z,8.43
2018-05-18T07:23:45.493Z,8.43
2018-05-18T07:24:45.502Z,8.47
2018-05-18T07:25:45.513Z,8.56
2018-05-18T07:26:45.523Z,8.56
2018-05-18T07:27:45.534Z,8.70
2018-05-18T07:28:45.548Z,8.71
2018-05-18T07:29:45.558Z,8.94
2018-05-18T07:30:45.569Z,8.98
2018-05-18T07:31:45.580Z,9.10
2018-05-18T07:32:45.590Z,9.18
2018-05-18T07:33:45.601Z,9.20
2018-05-18T07:34:45.612Z,9.31
2018-05-18T07:35:45.626Z,9.14
2018-05-18T07:36:45.635Z,9.15
2018-05-18T07:37:45.647Z,9.15
2018-05-18T07:38:45.659Z,8.98
2018-05-18T07:39:45.669Z,9.10
2018-05-18T07:40:45.680Z,9.13
2018-05-18T07:41:45.694Z,9.17
2018-05-18T07:42:45.704Z,9.20
2018-05-18T07:43:45.730Z,9.18
2018-05-18T07:44:45.728Z,9.35
2018-05-18T07:45:45.739Z,9.47
2018-05-18T07:46:45.749Z,9.35
2018-05-18T07:47:45.763Z,9.40
2018-05-18T07:48:45.774Z,9.38
2018-05-18T07:49:45.784Z,9.46
2018-05-18T07:50:45.796Z,9.42
2018-05-18T07:51:45.810Z,9.42
2018-05-18T07:52:45.823Z,9.53
2018-05-18T07:53:45.832Z,9.42
2018-05-18T07:54:45.841Z,9.54
2018-05-18T07:55:45.856Z,9.64
2018-05-18T07:56:45.866Z,9.50
2018-05-18T07:57:45.880Z,9.57
2018-05-18T07:58:45.888Z,9.69
2018-05-18T07:59:45.901Z,9.75
2018-05-18T08:00:45.911Z,9.79
2018-05-18T08:01:45.926Z,9.66
2018-05-18T08:02:45.937Z,9.40
2018-05-18T08:03:45.949Z,9.26
2018-05-18T08:04:45.962Z,9.33
2018-05-18T08:05:45.973Z,9.20
2018-05-18T08:06:45.984Z,9.20
2018-05-18T08:07:46.000Z,9.51
2018-05-18T08:08:46.008Z,9.61
2018-05-18T08:09:46.022Z,9.96
2018-05-18T08:10:46.031Z,10.15
2018-05-18T08:11:46.042Z,10.09
2018-05-18T08:12:46.057Z,9.84
2018-05-18T08:13:46.069Z,9.74
2018-05-18T08:14:46.079Z,9.99
2018-05-18T08:15:46.090Z,9.99
2018-05-18T08:16:46.110Z,9.83
2018-05-18T08:17:46.116Z,9.87
2018-05-18T08:18:46.130Z,10.18
2018-05-18T08:19:46.139Z,10.22
2018-05-18T08:20:46.152Z,10.08
2018-05-18T08:21:46.165Z,10.30
2018-05-18T08:22:46.175Z,10.33
2018-05-18T08:23:46.190Z,10.53
2018-05-18T08:24:46.199Z,10.76
2018-05-18T08:25:46.211Z,10.29
2018-05-18T08:26:46.223Z,10.32
2018-05-18T08:27:46.275Z,10.08
2018-05-18T08:28:46.249Z,10.11
2018-05-18T08:29:46.258Z,10.22
2018-05-18T08:30:46.271Z,10.05
2018-05-18T08:31:46.286Z,10.12
2018-05-18T08:32:46.294Z,10.12
2018-05-18T08:33:46.308Z,10.20
2018-05-18T08:34:46.318Z,9.94
2018-05-18T08:35:46.335Z,10.17
2018-05-18T08:36:46.344Z,10.40
2018-05-18T08:37:46.357Z,10.51
2018-05-18T08:38:46.364Z,10.96
2018-05-18T08:39:46.380Z,11.17
2018-05-18T08:40:46.390Z,11.19
2018-05-18T08:41:46.400Z,11.02
2018-05-18T08:42:46.412Z,11.04
2018-05-18T08:43:46.424Z,11.06
2018-05-18T08:44:46.437Z,11.03
2018-05-18T08:45:46.450Z,11.33
2018-05-18T08:46:46.459Z,11.03
2018-05-18T08:47:46.473Z,10.81
2018-05-18T08:48:46.486Z,10.81
2018-05-18T08:49:46.499Z,10.82
2018-05-18T08:50:46.507Z,11.10
2018-05-18T08:51:46.523Z,11.35
2018-05-18T08:52:46.535Z,11.51
2018-05-18T08:53:46.550Z,11.47
2018-05-18T08:54:46.557Z,11.43
2018-05-18T08:55:46.571Z,11.35
2018-05-18T08:56:46.583Z,11.25
2018-05-18T08:57:46.595Z,11.18
2018-05-18T08:58:46.606Z,11.28
2018-05-18T08:59:46.620Z,11.40
2018-05-18T09:00:46.635Z,11.32
2018-05-18T09:01:46.647Z,11.25
2018-05-18T09:02:46.657Z,11.58
2018-05-18T09:03:46.671Z,11.64
2018-05-18T09:04:46.685Z,11.83
2018-05-18T09:05:46.699Z,11.49
2018-05-18T09:06:46.708Z,11.37
2018-05-18T09:07:46.720Z,10.94
2018-05-18T09:08:46.737Z,10.89
2018-05-18T09:09:46.747Z,10.66
2018-05-18T09:10:46.758Z,11.02
2018-05-18T09:11:46.771Z,11.09
2018-05-18T09:12:46.783Z,11.39
2018-05-18T09:13:46.800Z,11.55
2018-05-18T09:14:46.809Z,11.69
2018-05-18T09:15:46.897Z,11.76
2018-05-18T09:16:46.835Z,11.73
2018-05-18T09:17:46.849Z,11.83
2018-05-18T09:18:46.860Z,12.01
2018-05-18T09:19:46.874Z,11.86
2018-05-18T09:20:46.887Z,12.19
2018-05-18T09:21:46.900Z,12.29
2018-05-18T09:22:46.913Z,12.20
2018-05-18T09:23:46.931Z,12.38
2018-05-18T09:24:46.943Z,12.39
2018-05-18T09:25:46.953Z,12.14
2018-05-18T09:26:46.971Z,12.31
2018-05-18T09:27:46.980Z,12.31
2018-05-18T09:28:46.994Z,12.32
2018-05-18T09:29:47.010Z,12.38
2018-05-18T09:30:47.021Z,12.38
2018-05-18T09:31:47.033Z,12.38
2018-05-18T09:32:47.048Z,12.24
2018-05-18T09:33:47.064Z,12.37
2018-05-18T09:34:47.074Z,12.41
2018-05-18T09:35:47.089Z,12.50
2018-05-18T09:36:47.103Z,12.39
2018-05-18T09:37:47.115Z,12.37
2018-05-18T09:38:47.129Z,12.56
2018-05-18T09:39:47.322Z,12.37
2018-05-18T09:40:47.159Z,12.46
2018-05-18T09:41:47.172Z,12.59
2018-05-18T09:42:47.188Z,12.52
2018-05-18T09:43:47.199Z,12.78
2018-05-18T09:44:47.213Z,12.86
2018-05-18T09:45:47.229Z,13.12
2018-05-18T09:46:47.241Z,13.36
2018-05-18T09:47:47.254Z,13.30
2018-05-18T09:48:47.269Z,13.08
2018-05-18T09:49:47.283Z,12.83
2018-05-18T09:50:47.297Z,12.89
2018-05-18T09:51:47.313Z,13.00
2018-05-18T09:52:47.329Z,12.19
2018-05-18T09:53:47.342Z,11.67
2018-05-18T09:54:47.384Z,11.96
2018-05-18T09:55:47.369Z,12.42
2018-05-18T09:56:47.384Z,13.07
2018-05-18T09:57:47.397Z,12.65
2018-05-18T09:58:47.411Z,12.87
2018-05-18T09:59:47.424Z,12.60
2018-05-18T10:00:47.456Z,12.87
2018-05-18T10:01:47.452Z,13.12
2018-05-18T10:02:48.462Z,13.44
2018-05-18T10:03:47.479Z,13.57
2018-05-18T10:04:47.494Z,13.30
2018-05-18T10:05:47.510Z,13.28
2018-05-18T10:06:47.520Z,13.36
2018-05-18T10:07:47.535Z,13.20
2018-05-18T10:08:47.550Z,13.23
2018-05-18T10:09:47.567Z,13.10
2018-05-18T10:10:47.578Z,13.08
2018-05-18T10:11:47.591Z,13.28
2018-05-18T10:12:47.607Z,13.48
2018-05-18T10:13:47.621Z,13.45
2018-05-18T10:14:47.637Z,13.32
2018-05-18T10:15:47.648Z,13.57
2018-05-18T10:16:47.664Z,13.81
2018-05-18T10:17:47.686Z,14.02
2018-05-18T10:18:47.691Z,13.45
2018-05-18T10:19:47.709Z,13.38
2018-05-18T10:20:47.723Z,13.44
2018-05-18T10:21:47.737Z,13.51
2018-05-18T10:22:47.751Z,13.20
2018-05-18T10:23:47.766Z,13.07
2018-05-18T10:24:47.779Z,13.20
2018-05-18T10:25:47.797Z,13.14
2018-05-18T10:26:47.809Z,13.28
2018-05-18T10:27:47.825Z,13.60
2018-05-18T10:28:47.840Z,13.30
2018-05-18T10:29:47.857Z,13.45
2018-05-18T10:30:47.868Z,13.19
2018-05-18T10:31:47.883Z,12.83
2018-05-18T10:32:47.990Z,13.08
2018-05-18T10:33:47.913Z,13.44
2018-05-18T10:34:47.929Z,13.07
2018-05-18T10:35:47.942Z,13.17
2018-05-18T10:36:47.958Z,13.29
2018-05-18T10:37:47.974Z,13.48
2018-05-18T10:38:47.988Z,13.89
2018-05-18T10:39:48.002Z,14.02
2018-05-18T10:40:48.018Z,13.78
2018-05-18T10:41:48.037Z,13.28
2018-05-18T10:42:48.049Z,12.65
2018-05-18T10:43:48.062Z,12.89
2018-05-18T10:44:48.077Z,13.10
2018-05-18T10:45:48.091Z,13.66
2018-05-18T10:46:48.108Z,14.10
2018-05-18T10:47:48.122Z,13.99
2018-05-18T10:48:48.140Z,13.97
2018-05-18T10:49:48.153Z,13.33
2018-05-18T10:50:48.168Z,13.41
2018-05-18T10:51:48.186Z,13.63
2018-05-18T10:52:48.197Z,13.97
2018-05-18T10:53:48.211Z,14.02
2018-05-18T10:54:48.229Z,14.28
2018-05-18T10:55:48.243Z,14.03
2018-05-18T10:56:48.264Z,13.78
2018-05-18T10:57:48.273Z,13.77
2018-05-18T10:58:48.286Z,13.87
2018-05-18T10:59:48.301Z,13.57
2018-05-18T11:00:48.317Z,13.87
2018-05-18T11:01:48.334Z,14.29
2018-05-18T11:02:48.348Z,13.89
2018-05-18T11:03:48.363Z,13.67
2018-05-18T11:04:48.383Z,13.66
2018-05-18T11:05:48.394Z,14.04
2018-05-18T11:06:48.409Z,14.09
2018-05-18T11:07:48.423Z,14.29
2018-05-18T11:08:48.437Z,14.27
2018-05-18T11:09:48.454Z,13.96
2018-05-18T11:10:48.468Z,14.00
2018-05-18T11:11:48.483Z,14.07
2018-05-18T11:12:48.498Z,13.97
2018-05-18T11:13:48.515Z,14.12
2018-05-18T11:14:48.529Z,14.27
2018-05-18T11:15:48.541Z,13.66
2018-05-18T11:16:48.559Z,14.09
2018-05-18T11:17:48.575Z,14.00
2018-05-18T11:18:48.590Z,14.20
2018-05-18T11:19:48.602Z,13.30
2018-05-18T11:20:48.620Z,13.79
2018-05-18T11:21:48.631Z,14.27
2018-05-18T11:22:48.647Z,13.96
2018-05-18T11:23:48.664Z,13.87
2018-05-18T11:24:48.679Z,14.45
2018-05-18T11:25:48.696Z,15.01
2018-05-18T11:26:48.709Z,15.20
2018-05-18T11:27:48.723Z,15.03
2018-05-18T11:28:48.746Z,14.94
2018-05-18T11:29:48.755Z,14.55
2018-05-18T11:30:48.769Z,14.92
2018-05-18T11:31:48.788Z,14.94
2018-05-18T11:32:48.802Z,15.01
2018-05-18T11:33:48.818Z,14.84
2018-05-18T11:34:48.831Z,14.96
2018-05-18T11:35:48.848Z,15.16
2018-05-18T11:36:48.863Z,14.95
2018-05-18T11:37:48.884Z,15.35
2018-05-18T11:38:48.895Z,15.43
2018-05-18T11:39:48.907Z,15.16
2018-05-18T11:40:48.925Z,15.35
2018-05-18T11:41:48.944Z,15.50
2018-05-18T11:42:48.958Z,15.50
2018-05-18T11:43:48.975Z,15.65
2018-05-18T11:44:48.990Z,15.41
2018-05-18T11:45:49.006Z,15.68
2018-05-18T11:46:49.021Z,15.28
2018-05-18T11:47:49.037Z,15.16
2018-05-18T11:48:49.056Z,14.64
2018-05-18T11:49:49.075Z,14.89
2018-05-18T11:50:49.086Z,14.70
2018-05-18T11:51:49.103Z,14.77
2018-05-18T11:52:49.121Z,14.78
2018-05-18T11:53:49.138Z,14.75
2018-05-18T11:54:49.152Z,15.39
2018-05-18T11:55:49.169Z,15.31
2018-05-18T11:56:49.187Z,15.32
2018-05-18T11:57:49.208Z,15.19
2018-05-18T11:58:49.217Z,15.38
2018-05-18T11:59:49.237Z,15.36
2018-05-18T12:00:49.250Z,15.38
2018-05-18T12:01:49.267Z,15.32
2018-05-18T12:02:49.361Z,14.65
2018-05-18T12:03:49.300Z,14.86
2018-05-18T12:04:49.318Z,14.94
2018-05-18T12:05:49.344Z,15.27
2018-05-18T12:06:49.349Z,14.92
2018-05-18T12:07:49.366Z,14.81
2018-05-18T12:08:49.383Z,15.02
2018-05-18T12:09:49.403Z,15.29
2018-05-18T12:10:49.418Z,15.27
2018-05-18T12:11:49.431Z,14.72
2018-05-18T12:12:49.449Z,14.84
2018-05-18T12:13:49.464Z,15.13
2018-05-18T12:14:49.480Z,15.27
2018-05-18T12:15:49.499Z,14.94
2018-05-18T12:16:49.513Z,15.03
2018-05-18T12:17:49.530Z,15.35
2018-05-18T12:18:49.546Z,15.17
2018-05-18T12:19:49.564Z,15.59
2018-05-18T12:20:49.580Z,16.14
2018-05-18T12:21:49.593Z,16.35
2018-05-18T12:22:49.611Z,15.35
2018-05-18T12:23:49.627Z,15.51
2018-05-18T12:24:49.642Z,15.67
2018-05-18T12:25:49.660Z,15.83
2018-05-18T12:26:49.674Z,15.80
2018-05-18T12:27:49.696Z,15.46
2018-05-18T12:28:49.709Z,15.56
2018-05-18T12:29:49.725Z,15.46
2018-05-18T12:30:49.743Z,15.56
2018-05-18T12:31:49.759Z,15.11
2018-05-18T12:32:49.776Z,14.96
2018-05-18T12:33:49.792Z,15.25
2018-05-18T12:34:49.808Z,15.35
2018-05-18T12:35:49.824Z,15.49
2018-05-18T12:36:49.847Z,15.27
2018-05-18T12:37:49.858Z,15.43
2018-05-18T12:38:49.874Z,15.09
2018-05-18T12:39:49.891Z,15.27
2018-05-18T12:40:49.913Z,15.07
2018-05-18T12:41:49.925Z,15.65
2018-05-18T12:42:49.941Z,15.74
2018-05-18T12:43:49.958Z,15.43
2018-05-18T12:44:49.975Z,15.21
2018-05-18T12:45:49.993Z,15.47
2018-05-18T12:46:50.013Z,14.96
2018-05-18T12:47:50.026Z,15.06
2018-05-18T12:48:50.043Z,15.32
2018-05-18T12:49:50.060Z,15.82
2018-05-18T12:50:50.078Z,15.87
2018-05-18T12:51:50.092Z,16.21
2018-05-18T12:52:50.110Z,15.80
2018-05-18T12:53:50.126Z,16.45
2018-05-18T12:54:50.146Z,16.24
2018-05-18T12:55:50.159Z,16.73
2018-05-18T12:56:50.179Z,16.20
2018-05-18T12:57:50.197Z,15.02
2018-05-18T12:58:50.213Z,14.81
2018-05-18T12:59:50.230Z,15.06
2018-05-18T13:00:50.245Z,15.41
2018-05-18T13:01:50.263Z,15.82
2018-05-18T13:02:50.281Z,15.94
2018-05-18T13:03:50.295Z,15.92
2018-05-18T13:04:50.314Z,16.08
2018-05-18T13:05:50.331Z,15.75
2018-05-18T13:06:50.348Z,16.21
2018-05-18T13:07:50.366Z,16.30
2018-05-18T13:08:50.384Z,16.17